Time;durP1;ratioP1;P1;durP2;ratioP2;P2;SDS_P1;SDS_P2;PMS_P1;PMS_P2;Temp;Humidity;BMP_temperature;BMP_pressure;BME280_temperature;BME280_humidity;BME280_pressure;Samples;Min_cycle;Max_cycle;Signal;HPM_P1;HPM_P2
2022/10/08 00:01:30;;;;;;;0.82;0.50;;;;;;;13.52;84.15;101627.97;5057745;28;20040;-73
2022/10/08 00:03:56;;;;;;;1.38;0.70;;;;;;;13.51;84.08;101636.75;5057318;28;20039;-73
2022/10/08 00:06:30;;;;;;;1.13;0.50;;;;;;;13.50;84.02;101635.06;5056278;28;20375;-73
2022/10/08 00:09:01;;;;;;;1.92;0.80;;;;;;;13.50;84.02;101632.44;5057952;28;20331;-73
2022/10/08 00:11:30;;;;;;;2.63;0.55;;;;;;;13.50;83.89;101632.44;5070998;28;20024;-73
2022/10/08 00:13:56;;;;;;;;;;;;;;;13.50;84.27;101631.56;5079037;28;20024;-73
2022/10/08 00:16:23;;;;;;;1.60;0.90;;;;;;;13.50;83.85;101639.44;5059317;28;20207;-73
2022/10/08 00:18:51;;;;;;;1.98;0.98;;;;;;;13.49;84.12;101629.84;5059953;28;20012;-73
2022/10/08 00:21:21;;;;;;;1.73;1.00;;;;;;;13.49;83.94;101632.47;5077286;28;20025;-73
2022/10/08 00:23:48;;;;;;;2.67;1.13;;;;;;;13.49;84.36;101635.13;5059969;28;20319;-73
2022/10/08 00:26:15;;;;;;;1.95;0.85;;;;;;;13.49;84.25;101635.13;5077704;28;20024;-73
2022/10/08 00:28:43;;;;;;;2.42;0.93;;;;;;;13.47;83.96;101629.91;5076269;28;20040;-73
2022/10/08 00:31:15;;;;;;;3.30;1.02;;;;;;;13.48;84.08;101629.00;5073512;28;20098;-73
2022/10/08 00:33:40;;;;;;;2.58;0.90;;;;;;;13.48;84.09;101630.75;5057606;28;20037;-73
2022/10/08 00:36:11;;;;;;;2.22;0.88;;;;;;;13.48;83.91;101636.03;5057482;28;20386;-73
2022/10/08 00:38:37;;;;;;;2.90;1.15;;;;;;;13.47;84.01;101635.19;5058707;28;20116;-73
2022/10/08 00:41:05;;;;;;;2.25;1.00;;;;;;;13.47;83.85;101645.69;5057439;28;20028;-73
2022/10/08 00:43:41;;;;;;;7.03;1.65;;;;;;;13.48;84.07;101630.75;5055572;28;20291;-73
2022/10/08 00:46:29;;;;;;;1.35;0.90;;;;;;;13.48;84.45;101641.28;5057427;28;20063;-73
2022/10/08 00:49:12;;;;;;;3.88;1.10;;;;;;;13.47;84.14;101639.59;5073384;28;20025;-73
2022/10/08 00:51:43;;;;;;;4.05;1.05;;;;;;;13.46;83.99;101629.97;5055860;28;20032;-73
2022/10/08 00:54:10;;;;;;;1.85;0.80;;;;;;;13.46;83.99;101637.84;5056117;28;20033;-73
2022/10/08 00:56:38;;;;;;;3.72;1.20;;;;;;;13.46;84.20;101632.59;5056852;28;20036;-73
2022/10/08 00:59:05;;;;;;;3.88;1.20;;;;;;;13.44;84.51;101635.28;5055356;28;20075;-73
2022/10/08 01:01:30;;;;;;;1.83;0.85;;;;;;;13.43;84.08;101631.81;5056663;28;20087;-73
2022/10/08 01:04:00;;;;;;;1.67;0.98;;;;;;;13.43;83.85;101630.97;5039238;28;20037;-73
2022/10/08 01:06:29;;;;;;;3.05;0.82;;;;;;;13.44;84.16;101632.66;5054986;28;20043;-73
2022/10/08 01:09:00;;;;;;;;;;;;;;;13.43;83.78;101638.84;5055962;28;20344;-73
2022/10/08 01:11:32;;;;;;;3.35;0.90;;;;;;;13.43;83.69;101638.84;5071874;28;19952;-73
2022/10/08 01:14:11;;;;;;;6.25;1.90;;;;;;;13.42;83.75;101638.00;5055813;28;20056;-73
2022/10/08 01:17:15;;;;;;;2.17;0.73;;;;;;;13.41;83.57;101633.66;5055282;28;20227;-73
2022/10/08 01:20:03;;;;;;;4.28;1.10;;;;;;;13.41;83.78;101628.38;5055597;28;20052;-73
2022/10/08 01:22:50;;;;;;;4.53;1.02;;;;;;;13.41;83.89;101632.81;5025598;28;20086;-73
2022/10/08 01:25:31;;;;;;;2.03;0.80;;;;;;;13.42;83.76;101642.38;5054711;28;20087;-73
2022/10/08 01:28:20;;;;;;;2.95;1.13;;;;;;;13.41;83.77;101640.69;5056589;28;20111;-73
2022/10/08 01:31:01;;;;;;;2.05;0.93;;;;;;;13.40;83.91;101639.81;5057660;28;20041;-73
2022/10/08 01:33:36;;;;;;;3.35;1.25;;;;;;;13.40;83.94;101641.59;5056208;28;20351;-73
2022/10/08 01:36:04;;;;;;;2.15;0.80;;;;;;;13.39;83.69;101651.28;5055028;28;20321;-73
2022/10/08 01:38:32;;;;;;;2.57;0.80;;;;;;;13.39;83.94;101643.38;5057681;28;20048;-73
2022/10/08 01:41:05;;;;;;;3.75;1.23;;;;;;;13.38;83.69;101646.91;5074684;28;20178;-73
2022/10/08 01:43:34;;;;;;;2.10;0.88;;;;;;;13.38;84.15;101643.44;5075740;28;20077;-73
2022/10/08 01:46:16;;;;;;;2.35;1.00;;;;;;;13.37;84.18;101649.59;5076192;28;20415;-73
2022/10/08 01:48:43;;;;;;;3.58;0.90;;;;;;;13.36;84.20;101648.75;5076299;28;20339;-73
2022/10/08 01:51:16;;;;;;;4.65;1.35;;;;;;;13.37;84.42;101646.97;5074988;28;20047;-74
2022/10/08 01:53:44;;;;;;;3.97;0.70;;;;;;;13.36;84.21;101645.28;5058210;28;20024;-73
2022/10/08 01:56:22;;;;;;;1.40;1.00;;;;;;;13.35;84.37;101651.44;5075986;28;20319;-73
2022/10/08 01:58:54;;;;;;;2.22;0.70;;;;;;;13.35;84.42;101659.34;5075995;28;20048;-73
2022/10/08 02:01:27;;;;;;;3.30;0.93;;;;;;;13.34;84.39;101665.53;5057783;28;20028;-73
2022/10/08 02:06:42;;;;;;;1.92;0.80;;;;;;;13.32;84.27;101651.59;5076302;28;20089;-73
2022/10/08 02:09:09;;;;;;;4.63;1.00;;;;;;;13.31;84.68;101655.97;5076095;28;20043;-73
2022/10/08 02:11:34;;;;;;;3.55;1.30;;;;;;;13.30;84.87;101659.50;5074895;28;20028;-73
2022/10/08 02:14:00;;;;;;;4.53;1.20;;;;;;;13.30;84.39;101658.63;5054311;28;20534;-73
2022/10/08 02:16:28;;;;;;;5.13;1.20;;;;;;;13.29;84.83;101657.75;5070477;28;20033;-73
2022/10/08 02:19:05;;;;;;;1.83;0.90;;;;;;;13.28;84.66;101657.81;5055125;28;20405;-73
2022/10/08 02:21:33;;;;;;;1.27;0.60;;;;;;;13.27;84.44;101658.75;5055286;28;20120;-74
2022/10/08 02:24:14;;;;;;;4.15;1.02;;;;;;;13.24;84.68;101655.34;5054243;28;20064;-73
2022/10/08 02:26:46;;;;;;;1.38;0.73;;;;;;;13.23;84.73;101655.38;5071030;28;20024;-73
2022/10/08 02:29:28;;;;;;;2.42;0.80;;;;;;;13.23;84.92;101658.03;5055103;28;20286;-73
2022/10/08 02:32:13;;;;;;;1.98;0.80;;;;;;;13.21;84.57;101660.69;5054327;28;20213;-74
2022/10/08 02:34:48;;;;;;;3.22;1.15;;;;;;;13.20;84.50;101663.38;5053993;28;20025;-73
2022/10/08 02:37:21;;;;;;;4.40;0.73;;;;;;;13.18;84.66;101663.44;5055074;28;20109;-73
2022/10/08 02:39:58;;;;;;;1.50;0.60;;;;;;;13.17;84.50;101666.13;5055926;28;20401;-73
2022/10/08 02:42:27;;;;;;;2.08;0.80;;;;;;;13.15;83.99;101663.59;5054829;28;20035;-73
2022/10/08 02:45:00;;;;;;;7.90;1.33;;;;;;;13.16;84.36;101669.69;5057028;28;20025;-73
2022/10/08 02:47:29;;;;;;;2.08;0.52;;;;;;;13.14;84.13;101669.75;5054821;28;20028;-73
2022/10/08 02:50:01;;;;;;;1.70;0.70;;;;;;;13.13;84.39;101672.44;5052560;28;20033;-73
2022/10/08 02:52:31;;;;;;;4.00;1.40;;;;;;;13.11;84.43;101669.00;5055378;28;20033;-72
2022/10/08 02:55:00;;;;;;;2.72;1.10;;;;;;;13.09;84.33;101670.84;5046243;28;20077;-72
2022/10/08 02:57:37;;;;;;;3.53;0.77;;;;;;;13.08;84.75;101672.63;5056746;28;20028;-72
2022/10/08 03:00:03;;;;;;;1.25;0.70;;;;;;;13.07;84.18;101670.88;5075296;28;20017;-72
2022/10/08 03:02:36;;;;;;;3.30;1.00;;;;;;;13.06;84.37;101682.31;5037416;28;20226;-72
2022/10/08 03:05:06;;;;;;;2.90;1.00;;;;;;;13.03;84.49;101685.94;5057886;28;20024;-72
2022/10/08 03:07:33;;;;;;;4.75;1.35;;;;;;;13.04;84.64;101692.03;5054766;28;20100;-72
2022/10/08 03:10:04;;;;;;;4.20;1.00;;;;;;;13.01;84.45;101692.16;5055763;28;20336;-72
2022/10/08 03:12:31;;;;;;;2.03;1.20;;;;;;;12.99;84.50;101694.00;5037004;28;20096;-72
2022/10/08 03:14:56;;;;;;;1.75;0.73;;;;;;;12.97;84.14;101698.44;5055011;28;20502;-72
2022/10/08 03:17:29;;;;;;;4.57;1.13;;;;;;;12.96;84.41;101704.63;5039926;28;20036;-72
2022/10/08 03:19:55;;;;;;;1.80;0.70;;;;;;;12.94;83.98;101699.41;5057281;28;20032;-72
2022/10/08 03:22:20;;;;;;;2.88;0.88;;;;;;;12.92;84.33;101700.41;5056808;28;20102;-72
2022/10/08 03:24:46;;;;;;;3.13;0.85;;;;;;;12.91;84.18;101701.31;5057196;28;20048;-72
2022/10/08 03:27:12;;;;;;;1.55;0.80;;;;;;;12.90;84.46;101704.81;5073063;28;20036;-73
2022/10/08 03:29:38;;;;;;;4.75;0.93;;;;;;;12.87;84.15;101703.19;5058452;28;20040;-72
2022/10/08 03:32:03;;;;;;;2.88;1.35;;;;;;;12.86;84.15;101709.34;5061029;28;20059;-72
2022/10/08 03:34:29;;;;;;;2.65;0.73;;;;;;;12.85;84.23;101712.91;5060352;28;20109;-72
2022/10/08 03:36:54;;;;;;;1.92;0.90;;;;;;;12.82;83.95;101706.00;5039344;28;20266;-72
2022/10/08 03:39:19;;;;;;;0.95;0.70;;;;;;;12.82;84.09;101713.00;5076852;28;20076;-72
2022/10/08 03:41:45;;;;;;;2.53;0.95;;;;;;;12.80;84.46;101714.84;5077944;28;20359;-72
2022/10/08 03:44:11;;;;;;;1.17;0.63;;;;;;;12.77;84.14;101715.81;5060984;28;20083;-72
2022/10/08 03:46:37;;;;;;;3.13;0.90;;;;;;;12.76;84.38;101723.75;5060753;28;20056;-72
2022/10/08 03:49:02;;;;;;;1.55;1.00;;;;;;;12.75;84.25;101724.66;5060680;28;20039;-72
2022/10/08 03:51:28;;;;;;;3.15;0.70;;;;;;;12.74;84.13;101728.22;5077849;28;20035;-72
2022/10/08 03:53:53;;;;;;;2.22;1.00;;;;;;;12.72;84.20;101737.91;5060845;28;20059;-72
2022/10/08 03:56:24;;;;;;;2.97;0.90;;;;;;;12.71;84.25;101731.78;5077964;28;20035;-72
2022/10/08 03:58:58;;;;;;;2.88;0.70;;;;;;;12.69;83.97;101736.25;5056781;28;20028;-72
2022/10/08 04:01:25;;;;;;;2.22;0.77;;;;;;;12.68;83.89;101730.13;5057800;28;20036;-72
2022/10/08 04:03:51;;;;;;;2.05;0.90;;;;;;;12.67;84.10;101733.66;5058338;28;20304;-72
2022/10/08 04:06:16;;;;;;;2.40;0.85;;;;;;;12.65;84.15;101738.13;5056321;28;20070;-72
2022/10/08 04:08:42;;;;;;;4.53;1.00;;;;;;;12.64;84.31;101744.31;5059560;28;20243;-72
2022/10/08 04:11:10;;;;;;;2.13;1.00;;;;;;;12.63;83.97;101745.19;5056962;28;20056;-72
2022/10/08 04:13:37;;;;;;;1.02;0.75;;;;;;;12.61;84.09;101746.19;5056486;28;20028;-72
2022/10/08 04:16:09;;;;;;;3.75;0.98;;;;;;;12.61;83.83;101751.44;5040359;28;20048;-72
2022/10/08 04:18:34;;;;;;;3.28;1.15;;;;;;;12.60;83.46;101754.97;5058775;28;20029;-72
2022/10/08 04:21:02;;;;;;;2.50;1.05;;;;;;;12.59;83.48;101756.75;5057992;28;20211;-72
2022/10/08 04:23:30;;;;;;;2.05;0.95;;;;;;;12.58;83.34;101759.41;5057334;28;20033;-72
2022/10/08 04:25:55;;;;;;;2.45;0.60;;;;;;;12.58;83.54;101755.00;5074973;28;20020;-72
2022/10/08 04:28:21;;;;;;;3.58;0.70;;;;;;;12.58;83.41;101759.41;5059490;28;20029;-72
2022/10/08 04:30:58;;;;;;;2.22;0.95;;;;;;;12.56;82.98;101754.19;5076409;28;20036;-72
2022/10/08 04:33:24;;;;;;;4.10;1.30;;;;;;;12.55;82.96;101757.75;5059334;28;20040;-72
2022/10/08 04:35:50;;;;;;;1.63;0.57;;;;;;;12.55;83.33;101768.28;5060045;28;20040;-72
2022/10/08 04:38:15;;;;;;;2.17;0.68;;;;;;;12.53;83.00;101767.44;5076843;28;20433;-72
2022/10/08 04:40:41;;;;;;;3.55;0.65;;;;;;;12.53;83.14;101763.97;5042296;28;20190;-72
2022/10/08 04:43:06;;;;;;;2.72;0.80;;;;;;;12.51;82.72;101769.25;5077576;28;20064;-72
2022/10/08 04:45:31;;;;;;;2.75;0.70;;;;;;;12.52;82.49;101778.03;5059097;28;20035;-72
2022/10/08 04:47:57;;;;;;;2.45;0.85;;;;;;;12.50;82.62;101770.19;5077615;28;20036;-72
2022/10/08 04:50:23;;;;;;;3.05;0.70;;;;;;;12.48;83.08;101778.13;5059128;28;20032;-72
2022/10/08 04:52:48;;;;;;;2.78;0.70;;;;;;;12.48;83.02;101775.50;5055009;28;20061;-72
2022/10/08 04:55:13;;;;;;;1.95;0.80;;;;;;;12.46;83.24;101774.69;5056725;28;20333;-72
2022/10/08 04:57:39;;;;;;;2.65;0.50;;;;;;;12.44;82.84;101778.25;5056163;28;20056;-73
2022/10/08 05:00:05;;;;;;;1.10;0.50;;;;;;;12.42;82.96;101778.31;5056068;28;20044;-72
2022/10/08 05:02:31;;;;;;;2.05;0.65;;;;;;;12.41;83.22;101784.50;5067928;28;20024;-72
2022/10/08 05:04:56;;;;;;;0.80;0.50;;;;;;;12.38;83.18;101781.94;5059352;28;20204;-72
2022/10/08 05:07:23;;;;;;;2.72;0.70;;;;;;;12.37;83.30;101790.75;5058742;28;20020;-72
2022/10/08 05:09:48;;;;;;;2.78;0.68;;;;;;;12.35;83.11;101797.84;5058706;28;20032;-72
2022/10/08 05:12:14;;;;;;;5.85;0.85;;;;;;;12.33;82.70;101794.38;5074854;28;20350;-72
2022/10/08 05:14:39;;;;;;;2.13;0.55;;;;;;;12.32;82.80;101799.69;5076996;28;20228;-72
2022/10/08 05:17:05;;;;;;;4.20;0.77;;;;;;;12.31;82.99;101796.19;5058970;28;20378;-72
2022/10/08 05:19:30;;;;;;;2.28;0.77;;;;;;;12.28;82.42;101807.69;5058305;28;20240;-72
2022/10/08 05:21:55;;;;;;;1.23;0.85;;;;;;;12.28;82.42;101810.31;5076782;28;20037;-72
2022/10/08 05:24:21;;;;;;;1.63;0.43;;;;;;;12.28;82.22;101812.06;5054686;28;20320;-72
2022/10/08 05:26:46;;;;;;;5.10;1.00;;;;;;;12.25;82.13;101814.78;5056562;28;20040;-72
2022/10/08 05:29:12;;;;;;;1.63;0.60;;;;;;;12.25;82.27;101822.66;5038280;28;20021;-72
2022/10/08 05:31:37;;;;;;;3.80;0.73;;;;;;;12.23;82.12;101832.38;5055346;28;20317;-72
2022/10/08 05:34:03;;;;;;;3.13;1.38;;;;;;;12.22;82.04;101826.22;5053734;28;20033;-72
2022/10/08 05:36:31;;;;;;;1.42;0.80;;;;;;;12.20;82.00;101835.94;5054577;28;20037;-72
2022/10/08 05:38:59;;;;;;;2.17;0.47;;;;;;;12.20;81.83;101830.69;5050700;28;20095;-72
2022/10/08 05:41:30;;;;;;;3.90;0.85;;;;;;;12.20;81.94;101832.47;5054425;28;20044;-72
2022/10/08 05:43:56;;;;;;;3.03;0.85;;;;;;;12.19;82.33;101838.63;5049010;28;20040;-72
2022/10/08 05:46:24;;;;;;;1.95;0.65;;;;;;;12.18;82.74;101834.28;5053296;28;20029;-72
2022/10/08 05:48:54;;;;;;;3.08;0.60;;;;;;;12.17;82.56;101840.41;5054582;28;20035;-72
2022/10/08 05:51:19;;;;;;;2.65;0.80;;;;;;;12.16;82.54;101843.97;5053988;28;20365;-72
2022/10/08 05:53:47;;;;;;;2.45;0.70;;;;;;;12.16;82.65;101849.22;5035315;28;20025;-72
2022/10/08 05:56:16;;;;;;;1.27;0.57;;;;;;;12.15;82.58;101855.38;5052741;28;20033;-72
2022/10/08 05:58:42;;;;;;;0.82;0.35;;;;;;;12.14;82.20;101858.91;5054233;28;20343;-72
2022/10/08 06:01:20;;;;;;;4.93;0.70;;;;;;;12.12;82.60;101866.00;5054637;28;20029;-72
2022/10/08 06:03:50;;;;;;;3.50;1.03;;;;;;;12.12;82.59;101866.84;5052300;28;20052;-72
2022/10/08 06:06:16;;;;;;;2.83;0.60;;;;;;;12.10;82.67;101869.50;5053271;28;20029;-72
2022/10/08 06:08:41;;;;;;;2.13;0.60;;;;;;;12.09;82.19;101877.44;5036421;28;20244;-72
2022/10/08 06:11:07;;;;;;;2.58;0.63;;;;;;;12.09;82.78;101885.31;5037757;28;20045;-72
2022/10/08 06:13:33;;;;;;;0.98;0.50;;;;;;;12.08;82.33;101891.47;5051773;28;20032;-72
2022/10/08 06:16:08;;;;;;;2.13;0.40;;;;;;;12.07;82.50;101893.22;5050101;28;20071;-72
2022/10/08 06:18:40;;;;;;;3.28;0.73;;;;;;;12.06;82.28;101896.78;5051455;28;20287;-72
2022/10/08 06:21:10;;;;;;;6.20;0.70;;;;;;;12.05;82.42;101905.53;5054277;28;20068;-72
2022/10/08 06:23:37;;;;;;;1.95;0.50;;;;;;;12.06;82.18;101909.03;5051086;28;20029;-72
2022/10/08 06:26:08;;;;;;;6.88;1.33;;;;;;;12.05;81.92;101910.78;5048837;28;20024;-72
2022/10/08 06:28:34;;;;;;;4.68;0.80;;;;;;;12.04;81.81;101918.72;5067401;28;20327;-72
2022/10/08 06:31:01;;;;;;;2.00;0.80;;;;;;;12.04;82.07;101913.47;5052364;28;20028;-72
2022/10/08 06:33:27;;;;;;;1.75;0.60;;;;;;;12.03;82.34;101924.88;5052859;28;20036;-72
2022/10/08 06:35:53;;;;;;;1.73;0.80;;;;;;;12.03;82.02;101930.13;5053685;28;20074;-72
2022/10/08 06:38:18;;;;;;;2.85;0.70;;;;;;;12.01;82.03;101924.94;5069297;28;20251;-72
2022/10/08 06:40:44;;;;;;;1.55;0.52;;;;;;;12.01;82.19;101932.81;5055637;28;20025;-72
2022/10/08 06:43:17;;;;;;;2.85;0.50;;;;;;;12.01;82.18;101938.06;5053593;28;20036;-73
2022/10/08 06:45:44;;;;;;;3.88;0.60;;;;;;;12.02;82.10;101944.16;5071870;28;20075;-74
2022/10/08 06:48:10;;;;;;;3.70;0.85;;;;;;;12.01;82.31;101952.94;5072331;28;20188;-72
2022/10/08 06:50:36;;;;;;;3.38;0.77;;;;;;;12.01;82.43;101958.22;5071463;28;20021;-72
2022/10/08 06:53:03;;;;;;;3.13;0.55;;;;;;;11.99;82.05;101958.25;5069419;28;20332;-73
2022/10/08 06:55:28;;;;;;;5.32;0.70;;;;;;;11.99;82.31;101962.59;5049212;28;20036;-72
2022/10/08 06:57:54;;;;;;;2.90;0.70;;;;;;;11.99;81.99;101957.34;5065770;28;20317;-72
2022/10/08 07:00:19;;;;;;;3.72;0.70;;;;;;;11.99;82.37;101957.34;5054821;28;20118;-72
2022/10/08 07:02:45;;;;;;;1.52;0.55;;;;;;;11.97;82.26;101965.31;5037606;28;20037;-72
2022/10/08 07:05:10;;;;;;;4.60;0.80;;;;;;;11.97;82.04;101962.69;5066489;28;20059;-72
2022/10/08 07:07:36;;;;;;;6.15;1.25;;;;;;;11.97;82.08;101969.69;5068787;28;20036;-72
2022/10/08 07:10:02;;;;;;;2.85;0.70;;;;;;;11.96;82.21;101968.81;5069849;28;20101;-72
2022/10/08 07:12:29;;;;;;;2.28;0.70;;;;;;;11.95;82.16;101964.50;5069175;28;20040;-72
2022/10/08 07:14:54;;;;;;;2.70;0.50;;;;;;;11.96;82.03;101973.22;5070324;28;20032;-72
2022/10/08 07:17:19;;;;;;;1.73;0.68;;;;;;;11.96;82.28;101975.84;5068775;28;20058;-72
2022/10/08 07:19:45;;;;;;;3.38;0.57;;;;;;;11.97;82.77;101986.31;5049175;28;20056;-72
2022/10/08 07:22:10;;;;;;;2.88;0.75;;;;;;;11.95;82.37;101989.88;5067247;28;20325;-72
2022/10/08 07:24:36;;;;;;;3.30;0.77;;;;;;;11.95;82.34;101989.88;5053516;28;20208;-72
2022/10/08 07:27:01;;;;;;;2.22;0.70;;;;;;;11.95;82.11;101993.38;5049553;28;20495;-72
2022/10/08 07:29:26;;;;;;;2.70;0.43;;;;;;;11.94;82.30;102002.13;5053440;28;20361;-72
2022/10/08 07:31:52;;;;;;;2.15;0.80;;;;;;;11.95;82.35;102003.88;5048110;28;20041;-72
2022/10/08 07:34:18;;;;;;;3.63;0.70;;;;;;;11.94;82.13;102003.91;5050290;28;20039;-72
2022/10/08 07:36:43;;;;;;;5.18;0.88;;;;;;;11.93;81.78;102013.53;5051986;28;20028;-72
2022/10/08 07:39:14;;;;;;;9.52;1.23;;;;;;;11.95;82.43;102021.38;5067219;28;20086;-72
2022/10/08 07:41:40;;;;;;;2.63;0.80;;;;;;;11.94;82.12;102027.53;5066032;28;20047;-72
2022/10/08 07:44:06;;;;;;;2.25;0.85;;;;;;;11.93;81.78;102025.81;5051554;28;20036;-72
2022/10/08 07:46:33;;;;;;;5.05;1.23;;;;;;;11.91;81.98;102028.47;5064674;28;20029;-72
2022/10/08 07:49:00;;;;;;;3.60;0.88;;;;;;;11.91;82.15;102038.97;5073996;28;20039;-72
2022/10/08 07:51:27;;;;;;;3.40;1.00;;;;;;;11.92;82.20;102039.84;5075011;28;20070;-72
2022/10/08 07:53:53;;;;;;;1.38;0.57;;;;;;;11.92;82.01;102042.47;5058596;28;20028;-72
2022/10/08 07:56:20;;;;;;;5.22;0.70;;;;;;;11.92;82.15;102050.34;5056503;28;20045;-72
2022/10/08 07:58:46;;;;;;;9.70;1.10;;;;;;;11.90;81.62;102043.34;5082523;28;20028;-72
2022/10/08 08:01:15;;;;;;;3.47;0.73;;;;;;;11.90;81.11;102047.75;5073818;28;20269;-73
2022/10/08 08:03:40;;;;;;;3.72;0.63;;;;;;;11.89;82.01;102061.75;5076835;28;20033;-72
2022/10/08 08:06:09;;;;;;;3.55;1.00;;;;;;;11.88;81.09;102055.63;5093122;28;20035;-72
2022/10/08 08:08:36;;;;;;;2.80;0.93;;;;;;;11.89;81.52;102064.38;5052460;28;20100;-72
2022/10/08 08:11:04;;;;;;;1.83;0.60;;;;;;;11.87;81.38;102069.66;5073662;28;20033;-72
2022/10/08 08:13:31;;;;;;;1.50;0.80;;;;;;;11.88;81.80;102073.16;5059938;28;20055;-72
2022/10/08 08:15:58;;;;;;;4.15;0.90;;;;;;;11.88;80.87;102083.66;5070949;28;20227;-72
2022/10/08 08:18:27;;;;;;;3.90;0.90;;;;;;;11.88;81.09;102076.63;5089282;28;20035;-72
2022/10/08 08:20:59;;;;;;;;;;;;;;;11.88;81.37;102083.66;5076669;28;20352;-72
2022/10/08 08:23:33;;;;;;;2.28;0.85;;;;;;;11.89;81.52;102095.88;5086117;28;20256;-72
2022/10/08 08:26:03;;;;;;;4.20;0.90;;;;;;;11.89;81.38;102095.88;5062314;28;20028;-72
2022/10/08 08:28:29;;;;;;;5.85;1.10;;;;;;;11.88;81.56;102097.63;5079442;28;20104;-72
2022/10/08 08:31:19;;;;;;;3.17;0.50;;;;;;;11.89;81.17;102103.75;5045463;28;20024;-72
2022/10/08 08:33:54;;;;;;;4.68;0.93;;;;;;;11.88;81.60;102100.25;5074634;28;20112;-72
2022/10/08 08:36:24;;;;;;;3.58;0.70;;;;;;;11.89;81.92;102106.38;5075903;28;20328;-72
2022/10/08 08:38:49;;;;;;;2.72;0.80;;;;;;;11.89;82.21;102115.09;5061760;28;20087;-72
2022/10/08 08:41:19;;;;;;;2.40;0.63;;;;;;;11.90;82.09;102118.63;5085067;28;20243;-72
2022/10/08 08:43:45;;;;;;;4.13;0.75;;;;;;;11.91;81.98;102125.59;5080114;28;20051;-72
2022/10/08 08:46:15;;;;;;;5.75;1.10;;;;;;;11.90;81.99;102129.13;5055520;28;20028;-72
2022/10/08 08:48:44;;;;;;;2.67;0.90;;;;;;;11.92;81.74;102139.59;5090996;28;20087;-72
2022/10/08 08:51:09;;;;;;;3.08;1.35;;;;;;;11.92;81.58;102131.72;5084586;28;20095;-72
2022/10/08 08:53:35;;;;;;;3.05;0.90;;;;;;;11.93;82.14;102136.06;5057402;28;20040;-72
2022/10/08 08:56:04;;;;;;;5.78;1.00;;;;;;;11.94;82.17;102138.66;5074889;28;20040;-72
2022/10/08 08:58:41;;;;;;;5.75;1.20;;;;;;;11.94;81.85;102138.66;5061841;28;20423;-72
2022/10/08 09:01:41;;;;;;;4.43;0.90;;;;;;;11.96;81.44;102138.63;5068657;28;20044;-72
2022/10/08 09:04:14;;;;;;;2.85;0.88;;;;;;;11.98;81.61;102144.69;5069521;28;20056;-72
2022/10/08 09:06:40;;;;;;;2.17;0.73;;;;;;;12.00;81.67;102150.75;5071178;28;20340;-72
2022/10/08 09:09:35;;;;;;;1.52;0.63;;;;;;;12.00;82.13;102148.97;5039102;28;20033;-72
2022/10/08 09:12:13;;;;;;;4.13;0.80;;;;;;;12.00;81.99;102164.72;5089368;28;20032;-72
2022/10/08 09:14:46;;;;;;;7.70;1.00;;;;;;;12.01;82.34;102168.25;5065734;28;20024;-72
2022/10/08 09:17:18;;;;;;;5.40;1.35;;;;;;;12.01;81.78;102170.88;5058545;28;20028;-73
2022/10/08 09:19:45;;;;;;;7.57;1.25;;;;;;;12.00;82.11;102175.22;5058614;28;20400;-72
2022/10/08 09:22:23;;;;;;;2.83;0.90;;;;;;;12.02;81.93;102178.69;5076474;28;20051;-72
2022/10/08 09:24:52;;;;;;;9.82;0.90;;;;;;;12.03;82.07;102175.16;5083037;28;20020;-72
2022/10/08 09:27:18;;;;;;;6.30;0.93;;;;;;;12.04;81.81;102187.41;5058415;28;20040;-72
2022/10/08 09:29:43;;;;;;;4.80;1.25;;;;;;;12.07;80.77;102184.69;5079050;28;20247;-73
2022/10/08 09:32:17;;;;;;;3.72;0.82;;;;;;;12.10;81.19;102189.00;5055390;28;20039;-73
2022/10/08 09:34:45;;;;;;;3.50;0.60;;;;;;;12.11;81.33;102198.59;5057444;28;20208;-73
2022/10/08 09:37:21;;;;;;;2.45;0.95;;;;;;;12.14;81.12;102197.69;5052262;28;20043;-73
2022/10/08 09:40:12;;;;;;;8.90;1.25;;;;;;;12.16;81.21;102206.38;5068495;28;20102;-73
2022/10/08 09:42:37;;;;;;;3.67;0.80;;;;;;;12.17;81.24;102214.22;5045030;28;20158;-73
2022/10/08 09:45:33;;;;;;;7.28;1.05;;;;;;;12.17;79.98;102211.59;5068720;28;20242;-73
2022/10/08 09:48:24;;;;;;;3.00;0.82;;;;;;;12.20;80.27;102206.25;5076693;28;20278;-75
2022/10/08 09:50:52;;;;;;;3.95;0.88;;;;;;;12.21;79.65;102207.13;5058234;28;20070;-73
2022/10/08 09:53:19;;;;;;;5.57;1.15;;;;;;;12.23;79.34;102210.56;5075589;28;20036;-73
2022/10/08 09:55:57;;;;;;;5.05;1.08;;;;;;;12.24;78.80;102213.16;5077446;28;20029;-73
2022/10/08 09:58:23;;;;;;;6.00;0.90;;;;;;;12.27;79.60;102212.22;5044351;28;20040;-73
2022/10/08 10:01:12;;;;;;;4.00;0.80;;;;;;;12.29;79.88;102221.75;5053005;28;20482;-73
2022/10/08 10:03:39;;;;;;;5.78;0.70;;;;;;;12.30;80.27;102227.91;5072507;28;20089;-73
2022/10/08 10:06:05;;;;;;;3.08;0.63;;;;;;;12.32;80.49;102219.97;5056100;28;20057;-73
2022/10/08 10:08:51;;;;;;;3.25;0.60;;;;;;;12.31;80.62;102226.97;5054913;28;20036;-73
2022/10/08 10:11:55;;;;;;;10.45;0.85;;;;;;;12.31;79.93;102224.34;5065931;28;20040;-73
2022/10/08 10:14:51;;;;;;;2.83;0.90;;;;;;;12.32;80.19;102233.97;5028626;28;20251;-73
2022/10/08 10:17:34;;;;;;;3.67;0.90;;;;;;;12.32;80.34;102228.72;5082875;28;20040;-72
2022/10/08 10:20:09;;;;;;;1.98;0.70;;;;;;;12.33;80.00;102240.94;5074249;28;20021;-73
2022/10/08 10:22:48;;;;;;;4.15;0.77;;;;;;;12.35;79.57;102240.91;5052550;28;20032;-73
2022/10/08 10:25:48;;;;;;;;;;;;;;;12.36;79.80;102246.13;5072297;28;20338;-73
2022/10/08 10:28:40;;;;;;;3.28;1.30;;;;;;;12.39;78.96;102253.06;4973443;28;20123;-73
2022/10/08 10:31:12;;;;;;;4.05;0.90;;;;;;;12.38;77.98;102249.56;5074177;28;20035;-73
2022/10/08 10:33:50;;;;;;;4.30;0.90;;;;;;;12.39;79.02;102255.69;5073502;28;20091;-73
2022/10/08 10:36:17;;;;;;;4.60;1.02;;;;;;;12.39;77.87;102250.44;5074042;28;20051;-73
2022/10/08 10:39:00;;;;;;;4.50;0.90;;;;;;;12.40;77.37;102258.25;5072249;28;20044;-73
2022/10/08 10:41:36;;;;;;;2.42;0.60;;;;;;;12.42;79.16;102259.09;5054583;28;20038;-73
2022/10/08 10:44:13;;;;;;;3.00;0.82;;;;;;;12.44;79.11;102259.03;5064673;28;20036;-73
2022/10/08 10:46:40;;;;;;;5.20;1.15;;;;;;;12.45;78.78;102272.16;5066767;28;20304;-73
2022/10/08 10:49:18;;;;;;;7.28;0.68;;;;;;;12.47;79.56;102264.22;5063764;28;20028;-73
2022/10/08 10:51:43;;;;;;;3.17;0.65;;;;;;;12.47;79.47;102269.50;5049707;28;20224;-73
2022/10/08 10:54:24;;;;;;;1.85;0.65;;;;;;;12.49;79.88;102275.56;5050445;28;20029;-73
2022/10/08 10:57:14;;;;;;;2.13;0.70;;;;;;;12.51;79.55;102273.75;5069207;28;20043;-73
2022/10/08 11:00:02;;;;;;;3.08;0.90;;;;;;;12.51;79.33;102281.63;5069883;28;20320;-73
2022/10/08 11:02:31;;;;;;;;;;;;;;;12.52;78.37;102280.75;5064011;28;20235;-72
2022/10/08 11:05:15;;;;;;;5.25;0.88;;;;;;;12.54;77.93;102280.72;5072896;28;19995;-73
2022/10/08 11:07:48;;;;;;;5.93;0.73;;;;;;;12.55;78.64;102280.69;5072718;28;20025;-73
2022/10/08 11:10:37;;;;;;;5.75;0.93;;;;;;;12.57;77.70;102286.75;5078639;28;20040;-73
2022/10/08 11:13:08;;;;;;;5.82;0.82;;;;;;;12.59;76.75;102294.59;5049887;28;20029;-73
2022/10/08 11:15:42;;;;;;;5.35;0.90;;;;;;;12.60;76.03;102291.06;5068580;28;20044;-73
2022/10/08 11:18:35;;;;;;;4.35;0.70;;;;;;;12.63;75.61;102293.63;5070514;28;20099;-73
2022/10/08 11:21:28;;;;;;;4.53;0.77;;;;;;;12.67;77.43;102282.97;5072581;28;20027;-73
2022/10/08 11:23:59;;;;;;;3.60;0.80;;;;;;;12.71;78.28;102288.16;5052393;28;20059;-73
2022/10/08 11:26:36;;;;;;;6.10;1.40;;;;;;;12.75;79.17;102289.78;5069727;28;20037;-73
2022/10/08 11:29:27;;;;;;;2.85;0.82;;;;;;;12.77;79.14;102288.84;5062208;28;20024;-74
2022/10/08 11:31:53;;;;;;;5.35;0.90;;;;;;;12.81;79.16;102300.16;5072827;28;20028;-73
2022/10/08 11:34:37;;;;;;;4.05;1.05;;;;;;;12.84;79.62;102306.19;5067749;28;20231;-74
2022/10/08 11:37:28;;;;;;;2.63;0.70;;;;;;;12.86;79.31;102287.72;5063166;28;20382;-73
2022/10/08 11:40:25;;;;;;;3.88;0.90;;;;;;;12.91;79.58;102300.75;5069387;28;20362;-74
2022/10/08 11:43:09;;;;;;;5.38;0.98;;;;;;;12.90;76.98;102297.28;5072757;28;20020;-74
2022/10/08 11:45:40;;;;;;;5.10;1.08;;;;;;;12.93;78.45;102296.31;5070988;28;20032;-74
2022/10/08 11:48:34;;;;;;;3.45;1.08;;;;;;;12.95;78.40;102297.13;5072756;28;20087;-74